sensor_id;sensor_type;location;lat;lon;timestamp;P1;durP1;ratioP1;P2;durP2;ratioP2
32866;SDS011;19220;55.816;37.808;2023-04-25T00:01:47;20.05;;;5.53;;
32866;SDS011;19220;55.816;37.808;2023-04-25T00:04:12;20.17;;;5.63;;
32866;SDS011;19220;55.816;37.808;2023-04-25T00:06:38;13.90;;;5.53;;
32866;SDS011;19220;55.816;37.808;2023-04-25T00:09:05;19.15;;;5.30;;
32866;SDS011;19220;55.816;37.808;2023-04-25T00:11:35;17.38;;;6.00;;
32866;SDS011;19220;55.816;37.808;2023-04-25T00:14:02;19.92;;;5.95;;
32866;SDS011;19220;55.816;37.808;2023-04-25T00:16:28;13.35;;;5.07;;
32866;SDS011;19220;55.816;37.808;2023-04-25T00:18:54;18.13;;;5.57;;
32866;SDS011;19220;55.816;37.808;2023-04-25T00:21:20;17.23;;;6.22;;
32866;SDS011;19220;55.816;37.808;2023-04-25T00:23:46;17.08;;;5.88;;
32866;SDS011;19220;55.816;37.808;2023-04-25T00:26:12;14.98;;;5.57;;
32866;SDS011;19220;55.816;37.808;2023-04-25T00:28:38;18.45;;;6.00;;
32866;SDS011;19220;55.816;37.808;2023-04-25T00:31:04;18.20;;;6.13;;
32866;SDS011;19220;55.816;37.808;2023-04-25T00:33:30;11.98;;;5.65;;
32866;SDS011;19220;55.816;37.808;2023-04-25T00:35:56;13.23;;;5.50;;
32866;SDS011;19220;55.816;37.808;2023-04-25T00:38:21;16.02;;;5.55;;
32866;SDS011;19220;55.816;37.808;2023-04-25T00:40:47;17.33;;;5.32;;
32866;SDS011;19220;55.816;37.808;2023-04-25T00:43:12;10.48;;;5.32;;
32866;SDS011;19220;55.816;37.808;2023-04-25T00:45:38;13.07;;;5.60;;
32866;SDS011;19220;55.816;37.808;2023-04-25T00:48:04;21.02;;;5.55;;
32866;SDS011;19220;55.816;37.808;2023-04-25T00:50:30;12.32;;;5.45;;
32866;SDS011;19220;55.816;37.808;2023-04-25T00:52:57;10.95;;;5.53;;
32866;SDS011;19220;55.816;37.808;2023-04-25T00:55:23;14.40;;;5.10;;
32866;SDS011;19220;55.816;37.808;2023-04-25T00:57:48;11.80;;;5.63;;
32866;SDS011;19220;55.816;37.808;2023-04-25T01:00:14;14.45;;;5.65;;
32866;SDS011;19220;55.816;37.808;2023-04-25T01:02:40;10.35;;;5.07;;
32866;SDS011;19220;55.816;37.808;2023-04-25T01:05:07;12.80;;;5.70;;
32866;SDS011;19220;55.816;37.808;2023-04-25T01:07:34;20.83;;;5.30;;
32866;SDS011;19220;55.816;37.808;2023-04-25T01:10:00;10.70;;;4.90;;
32866;SDS011;19220;55.816;37.808;2023-04-25T01:12:29;12.73;;;5.30;;
32866;SDS011;19220;55.816;37.808;2023-04-25T01:14:55;14.40;;;5.47;;
32866;SDS011;19220;55.816;37.808;2023-04-25T01:17:20;16.13;;;5.15;;
32866;SDS011;19220;55.816;37.808;2023-04-25T01:19:46;13.05;;;5.30;;
32866;SDS011;19220;55.816;37.808;2023-04-25T01:22:14;21.27;;;5.80;;
32866;SDS011;19220;55.816;37.808;2023-04-25T01:24:40;13.60;;;5.93;;
32866;SDS011;19220;55.816;37.808;2023-04-25T01:27:05;10.18;;;5.22;;
32866;SDS011;19220;55.816;37.808;2023-04-25T01:29:32;12.88;;;5.43;;
32866;SDS011;19220;55.816;37.808;2023-04-25T01:31:58;7.68;;;5.25;;
32866;SDS011;19220;55.816;37.808;2023-04-25T01:34:24;11.40;;;5.28;;
32866;SDS011;19220;55.816;37.808;2023-04-25T01:36:51;12.27;;;5.15;;
32866;SDS011;19220;55.816;37.808;2023-04-25T01:39:17;12.30;;;5.53;;
32866;SDS011;19220;55.816;37.808;2023-04-25T01:41:44;13.93;;;5.35;;
32866;SDS011;19220;55.816;37.808;2023-04-25T01:44:10;15.90;;;5.10;;
32866;SDS011;19220;55.816;37.808;2023-04-25T01:46:36;13.23;;;4.47;;
32866;SDS011;19220;55.816;37.808;2023-04-25T01:49:03;12.55;;;5.00;;
32866;SDS011;19220;55.816;37.808;2023-04-25T01:51:29;10.20;;;4.97;;
32866;SDS011;19220;55.816;37.808;2023-04-25T01:53:56;11.60;;;4.82;;
32866;SDS011;19220;55.816;37.808;2023-04-25T01:56:22;11.55;;;4.97;;
32866;SDS011;19220;55.816;37.808;2023-04-25T01:58:48;11.77;;;4.78;;
32866;SDS011;19220;55.816;37.808;2023-04-25T02:01:28;9.52;;;4.38;;
32866;SDS011;19220;55.816;37.808;2023-04-25T02:04:10;16.05;;;5.13;;
32866;SDS011;19220;55.816;37.808;2023-04-25T02:06:37;13.10;;;4.60;;
32866;SDS011;19220;55.816;37.808;2023-04-25T02:09:03;14.40;;;4.68;;
32866;SDS011;19220;55.816;37.808;2023-04-25T02:11:29;12.20;;;4.57;;
32866;SDS011;19220;55.816;37.808;2023-04-25T02:14:27;14.80;;;4.63;;
32866;SDS011;19220;55.816;37.808;2023-04-25T02:17:00;14.77;;;5.18;;
32866;SDS011;19220;55.816;37.808;2023-04-25T02:19:26;14.50;;;5.00;;
32866;SDS011;19220;55.816;37.808;2023-04-25T02:21:52;12.20;;;5.43;;
32866;SDS011;19220;55.816;37.808;2023-04-25T02:24:17;12.52;;;4.43;;
32866;SDS011;19220;55.816;37.808;2023-04-25T02:26:43;10.98;;;4.80;;
32866;SDS011;19220;55.816;37.808;2023-04-25T02:29:09;7.68;;;4.80;;
32866;SDS011;19220;55.816;37.808;2023-04-25T02:31:35;11.52;;;4.85;;
32866;SDS011;19220;55.816;37.808;2023-04-25T02:34:00;12.52;;;4.70;;
32866;SDS011;19220;55.816;37.808;2023-04-25T02:36:27;17.15;;;5.55;;
32866;SDS011;19220;55.816;37.808;2023-04-25T02:38:55;11.68;;;5.30;;
32866;SDS011;19220;55.816;37.808;2023-04-25T02:41:21;12.18;;;4.38;;
32866;SDS011;19220;55.816;37.808;2023-04-25T02:43:47;14.52;;;5.35;;
32866;SDS011;19220;55.816;37.808;2023-04-25T02:46:13;10.07;;;4.75;;
32866;SDS011;19220;55.816;37.808;2023-04-25T02:48:39;16.13;;;4.57;;
32866;SDS011;19220;55.816;37.808;2023-04-25T02:51:04;16.30;;;5.25;;
32866;SDS011;19220;55.816;37.808;2023-04-25T02:53:30;11.57;;;5.13;;
32866;SDS011;19220;55.816;37.808;2023-04-25T02:55:56;11.82;;;4.82;;
32866;SDS011;19220;55.816;37.808;2023-04-25T02:58:23;18.88;;;5.03;;
32866;SDS011;19220;55.816;37.808;2023-04-25T03:00:51;11.55;;;4.68;;
32866;SDS011;19220;55.816;37.808;2023-04-25T03:03:17;17.38;;;5.00;;
32866;SDS011;19220;55.816;37.808;2023-04-25T03:05:44;15.45;;;5.45;;
32866;SDS011;19220;55.816;37.808;2023-04-25T03:08:11;20.38;;;5.07;;
32866;SDS011;19220;55.816;37.808;2023-04-25T03:10:38;12.07;;;5.22;;
32866;SDS011;19220;55.816;37.808;2023-04-25T03:13:06;21.60;;;5.40;;
32866;SDS011;19220;55.816;37.808;2023-04-25T03:15:32;16.17;;;5.45;;
32866;SDS011;19220;55.816;37.808;2023-04-25T03:17:57;10.43;;;4.93;;
32866;SDS011;19220;55.816;37.808;2023-04-25T03:20:23;15.38;;;5.28;;
32866;SDS011;19220;55.816;37.808;2023-04-25T03:22:49;13.80;;;5.47;;
32866;SDS011;19220;55.816;37.808;2023-04-25T03:25:15;16.33;;;5.60;;
32866;SDS011;19220;55.816;37.808;2023-04-25T03:27:41;15.07;;;5.70;;
32866;SDS011;19220;55.816;37.808;2023-04-25T03:30:07;20.73;;;5.95;;
32866;SDS011;19220;55.816;37.808;2023-04-25T03:32:35;15.13;;;6.13;;
32866;SDS011;19220;55.816;37.808;2023-04-25T03:35:00;14.20;;;5.75;;
32866;SDS011;19220;55.816;37.808;2023-04-25T03:37:31;11.48;;;6.10;;
32866;SDS011;19220;55.816;37.808;2023-04-25T03:39:56;21.05;;;5.60;;
32866;SDS011;19220;55.816;37.808;2023-04-25T03:42:26;21.08;;;5.70;;
32866;SDS011;19220;55.816;37.808;2023-04-25T03:44:51;20.38;;;5.55;;
32866;SDS011;19220;55.816;37.808;2023-04-25T03:47:18;19.38;;;5.30;;
32866;SDS011;19220;55.816;37.808;2023-04-25T03:49:45;13.40;;;5.20;;
32866;SDS011;19220;55.816;37.808;2023-04-25T03:52:10;18.50;;;5.85;;
32866;SDS011;19220;55.816;37.808;2023-04-25T03:54:39;16.33;;;5.65;;
32866;SDS011;19220;55.816;37.808;2023-04-25T03:57:09;16.70;;;5.18;;
32866;SDS011;19220;55.816;37.808;2023-04-25T03:59:37;8.85;;;5.22;;
32866;SDS011;19220;55.816;37.808;2023-04-25T04:02:03;10.93;;;6.05;;
32866;SDS011;19220;55.816;37.808;2023-04-25T04:04:30;16.25;;;5.97;;
32866;SDS011;19220;55.816;37.808;2023-04-25T04:06:57;20.85;;;5.63;;
32866;SDS011;19220;55.816;37.808;2023-04-25T04:09:29;14.52;;;5.85;;
32866;SDS011;19220;55.816;37.808;2023-04-25T04:11:56;12.98;;;5.55;;
32866;SDS011;19220;55.816;37.808;2023-04-25T04:14:22;15.02;;;5.35;;
32866;SDS011;19220;55.816;37.808;2023-04-25T04:16:50;16.27;;;5.93;;
32866;SDS011;19220;55.816;37.808;2023-04-25T04:19:16;11.32;;;5.13;;
32866;SDS011;19220;55.816;37.808;2023-04-25T04:21:47;15.98;;;5.28;;
32866;SDS011;19220;55.816;37.808;2023-04-25T04:24:13;15.82;;;5.72;;
32866;SDS011;19220;55.816;37.808;2023-04-25T04:26:54;16.60;;;5.80;;
32866;SDS011;19220;55.816;37.808;2023-04-25T04:29:49;19.95;;;6.80;;
32866;SDS011;19220;55.816;37.808;2023-04-25T04:32:33;14.40;;;6.17;;
32866;SDS011;19220;55.816;37.808;2023-04-25T04:35:00;19.55;;;6.90;;
32866;SDS011;19220;55.816;37.808;2023-04-25T04:37:28;12.43;;;6.22;;
32866;SDS011;19220;55.816;37.808;2023-04-25T04:39:56;17.38;;;6.28;;
32866;SDS011;19220;55.816;37.808;2023-04-25T04:42:30;16.45;;;6.18;;
32866;SDS011;19220;55.816;37.808;2023-04-25T04:45:17;14.73;;;6.13;;
32866;SDS011;19220;55.816;37.808;2023-04-25T04:48:06;18.60;;;6.13;;
32866;SDS011;19220;55.816;37.808;2023-04-25T04:50:51;16.17;;;6.22;;
32866;SDS011;19220;55.816;37.808;2023-04-25T04:53:35;18.35;;;6.45;;
32866;SDS011;19220;55.816;37.808;2023-04-25T04:56:13;23.10;;;7.60;;
32866;SDS011;19220;55.816;37.808;2023-04-25T04:58:58;15.75;;;5.70;;
32866;SDS011;19220;55.816;37.808;2023-04-25T05:01:52;17.27;;;7.47;;
32866;SDS011;19220;55.816;37.808;2023-04-25T05:04:37;21.63;;;6.75;;
32866;SDS011;19220;55.816;37.808;2023-04-25T05:07:21;18.17;;;6.57;;
32866;SDS011;19220;55.816;37.808;2023-04-25T05:09:58;17.05;;;6.80;;
32866;SDS011;19220;55.816;37.808;2023-04-25T05:12:42;15.68;;;6.47;;
32866;SDS011;19220;55.816;37.808;2023-04-25T05:15:20;14.23;;;5.82;;
32866;SDS011;19220;55.816;37.808;2023-04-25T05:18:04;16.00;;;5.53;;
32866;SDS011;19220;55.816;37.808;2023-04-25T05:20:45;17.48;;;6.50;;
32866;SDS011;19220;55.816;37.808;2023-04-25T05:23:33;20.13;;;6.45;;
32866;SDS011;19220;55.816;37.808;2023-04-25T05:26:22;14.73;;;6.10;;
32866;SDS011;19220;55.816;37.808;2023-04-25T05:29:18;14.90;;;5.47;;
32866;SDS011;19220;55.816;37.808;2023-04-25T05:31:54;25.08;;;6.00;;
32866;SDS011;19220;55.816;37.808;2023-04-25T05:34:19;18.70;;;5.40;;
32866;SDS011;19220;55.816;37.808;2023-04-25T05:36:54;15.45;;;5.00;;
32866;SDS011;19220;55.816;37.808;2023-04-25T05:39:19;10.27;;;5.00;;
32866;SDS011;19220;55.816;37.808;2023-04-25T05:45:08;22.60;;;5.43;;
32866;SDS011;19220;55.816;37.808;2023-04-25T05:47:57;12.95;;;4.47;;
32866;SDS011;19220;55.816;37.808;2023-04-25T05:50:34;15.40;;;4.80;;
32866;SDS011;19220;55.816;37.808;2023-04-25T05:53:09;14.40;;;5.40;;
32866;SDS011;19220;55.816;37.808;2023-04-25T05:55:38;12.80;;;4.88;;
32866;SDS011;19220;55.816;37.808;2023-04-25T05:58:19;9.45;;;4.30;;
32866;SDS011;19220;55.816;37.808;2023-04-25T06:00:45;10.05;;;4.30;;
32866;SDS011;19220;55.816;37.808;2023-04-25T06:03:11;12.98;;;4.50;;
32866;SDS011;19220;55.816;37.808;2023-04-25T06:05:43;14.77;;;4.63;;
32866;SDS011;19220;55.816;37.808;2023-04-25T06:08:09;17.10;;;4.82;;
32866;SDS011;19220;55.816;37.808;2023-04-25T06:10:36;14.82;;;5.03;;
32866;SDS011;19220;55.816;37.808;2023-04-25T06:13:02;8.95;;;4.35;;
32866;SDS011;19220;55.816;37.808;2023-04-25T06:15:28;11.55;;;4.40;;
32866;SDS011;19220;55.816;37.808;2023-04-25T06:17:55;10.90;;;3.92;;
32866;SDS011;19220;55.816;37.808;2023-04-25T06:20:21;14.05;;;4.38;;
32866;SDS011;19220;55.816;37.808;2023-04-25T06:22:49;15.10;;;4.72;;
32866;SDS011;19220;55.816;37.808;2023-04-25T06:25:15;17.65;;;4.63;;
32866;SDS011;19220;55.816;37.808;2023-04-25T06:27:41;16.52;;;5.47;;
32866;SDS011;19220;55.816;37.808;2023-04-25T06:30:07;13.45;;;5.03;;
32866;SDS011;19220;55.816;37.808;2023-04-25T06:32:33;17.55;;;4.95;;
32866;SDS011;19220;55.816;37.808;2023-04-25T06:35:00;11.13;;;4.40;;
32866;SDS011;19220;55.816;37.808;2023-04-25T06:37:26;10.25;;;4.10;;
32866;SDS011;19220;55.816;37.808;2023-04-25T06:39:52;14.82;;;4.65;;
32866;SDS011;19220;55.816;37.808;2023-04-25T06:42:18;16.65;;;3.67;;
32866;SDS011;19220;55.816;37.808;2023-04-25T06:45:03;13.45;;;4.40;;
32866;SDS011;19220;55.816;37.808;2023-04-25T06:47:32;10.57;;;3.45;;
32866;SDS011;19220;55.816;37.808;2023-04-25T06:49:59;15.77;;;4.05;;
32866;SDS011;19220;55.816;37.808;2023-04-25T06:52:25;13.68;;;3.78;;
32866;SDS011;19220;55.816;37.808;2023-04-25T06:54:52;15.88;;;4.05;;
32866;SDS011;19220;55.816;37.808;2023-04-25T06:57:38;9.25;;;3.70;;
32866;SDS011;19220;55.816;37.808;2023-04-25T07:00:27;17.95;;;3.55;;
32866;SDS011;19220;55.816;37.808;2023-04-25T07:02:54;9.15;;;3.55;;
32866;SDS011;19220;55.816;37.808;2023-04-25T07:05:19;8.95;;;3.20;;
32866;SDS011;19220;55.816;37.808;2023-04-25T07:07:46;12.57;;;3.20;;
32866;SDS011;19220;55.816;37.808;2023-04-25T07:10:11;9.45;;;3.40;;
32866;SDS011;19220;55.816;37.808;2023-04-25T07:12:38;8.15;;;3.10;;
32866;SDS011;19220;55.816;37.808;2023-04-25T07:15:04;16.38;;;4.15;;
32866;SDS011;19220;55.816;37.808;2023-04-25T07:17:32;10.52;;;3.72;;
32866;SDS011;19220;55.816;37.808;2023-04-25T07:19:58;14.52;;;3.75;;
32866;SDS011;19220;55.816;37.808;2023-04-25T07:22:24;7.28;;;3.33;;
32866;SDS011;19220;55.816;37.808;2023-04-25T07:24:51;9.68;;;2.88;;
32866;SDS011;19220;55.816;37.808;2023-04-25T07:27:20;8.30;;;2.72;;
32866;SDS011;19220;55.816;37.808;2023-04-25T07:30:00;6.50;;;2.72;;
32866;SDS011;19220;55.816;37.808;2023-04-25T07:32:29;17.70;;;3.28;;
32866;SDS011;19220;55.816;37.808;2023-04-25T07:34:55;10.68;;;3.13;;
32866;SDS011;19220;55.816;37.808;2023-04-25T07:37:21;5.60;;;2.90;;
32866;SDS011;19220;55.816;37.808;2023-04-25T07:40:12;8.25;;;3.30;;
32866;SDS011;19220;55.816;37.808;2023-04-25T07:42:45;8.98;;;2.80;;
32866;SDS011;19220;55.816;37.808;2023-04-25T07:45:14;8.20;;;2.55;;
32866;SDS011;19220;55.816;37.808;2023-04-25T07:47:40;10.50;;;3.15;;
32866;SDS011;19220;55.816;37.808;2023-04-25T07:50:07;8.98;;;3.08;;
32866;SDS011;19220;55.816;37.808;2023-04-25T07:52:33;13.02;;;3.38;;
32866;SDS011;19220;55.816;37.808;2023-04-25T07:55:27;11.50;;;3.25;;
32866;SDS011;19220;55.816;37.808;2023-04-25T07:58:08;7.65;;;3.17;;
32866;SDS011;19220;55.816;37.808;2023-04-25T08:00:36;7.00;;;2.85;;
32866;SDS011;19220;55.816;37.808;2023-04-25T08:03:40;3.65;;;2.60;;
32866;SDS011;19220;55.816;37.808;2023-04-25T08:06:13;8.25;;;2.80;;
32866;SDS011;19220;55.816;37.808;2023-04-25T08:09:05;4.97;;;2.65;;
32866;SDS011;19220;55.816;37.808;2023-04-25T08:11:36;5.15;;;2.58;;
32866;SDS011;19220;55.816;37.808;2023-04-25T08:14:02;13.15;;;2.65;;
32866;SDS011;19220;55.816;37.808;2023-04-25T08:16:27;10.57;;;2.55;;
32866;SDS011;19220;55.816;37.808;2023-04-25T08:18:53;7.38;;;2.65;;
32866;SDS011;19220;55.816;37.808;2023-04-25T08:21:21;11.38;;;3.03;;
32866;SDS011;19220;55.816;37.808;2023-04-25T08:23:46;6.32;;;2.40;;
32866;SDS011;19220;55.816;37.808;2023-04-25T08:26:20;7.63;;;2.33;;
32866;SDS011;19220;55.816;37.808;2023-04-25T08:28:49;4.40;;;2.38;;
32866;SDS011;19220;55.816;37.808;2023-04-25T08:31:15;6.22;;;2.10;;
32866;SDS011;19220;55.816;37.808;2023-04-25T08:33:52;9.65;;;2.67;;
32866;SDS011;19220;55.816;37.808;2023-04-25T08:36:22;4.75;;;2.15;;
32866;SDS011;19220;55.816;37.808;2023-04-25T08:38:49;3.85;;;2.38;;
32866;SDS011;19220;55.816;37.808;2023-04-25T08:41:17;7.50;;;2.30;;
32866;SDS011;19220;55.816;37.808;2023-04-25T08:43:46;6.88;;;2.58;;
32866;SDS011;19220;55.816;37.808;2023-04-25T08:46:13;5.15;;;2.60;;
32866;SDS011;19220;55.816;37.808;2023-04-25T08:49:01;9.32;;;2.90;;
32866;SDS011;19220;55.816;37.808;2023-04-25T08:51:29;14.38;;;2.30;;
32866;SDS011;19220;55.816;37.808;2023-04-25T08:54:08;3.70;;;2.00;;
32866;SDS011;19220;55.816;37.808;2023-04-25T08:56:35;8.70;;;2.60;;
32866;SDS011;19220;55.816;37.808;2023-04-25T08:59:02;8.95;;;2.40;;
32866;SDS011;19220;55.816;37.808;2023-04-25T09:01:28;5.43;;;2.83;;
32866;SDS011;19220;55.816;37.808;2023-04-25T09:03:54;6.60;;;2.63;;
32866;SDS011;19220;55.816;37.808;2023-04-25T09:06:20;8.10;;;2.35;;
32866;SDS011;19220;55.816;37.808;2023-04-25T09:08:49;7.40;;;2.25;;
32866;SDS011;19220;55.816;37.808;2023-04-25T09:11:15;6.80;;;2.58;;
32866;SDS011;19220;55.816;37.808;2023-04-25T09:13:41;12.20;;;2.83;;
32866;SDS011;19220;55.816;37.808;2023-04-25T09:16:21;14.27;;;3.42;;
32866;SDS011;19220;55.816;37.808;2023-04-25T09:19:05;5.30;;;3.30;;
32866;SDS011;19220;55.816;37.808;2023-04-25T09:21:34;9.63;;;2.92;;
32866;SDS011;19220;55.816;37.808;2023-04-25T09:24:00;6.18;;;3.40;;
32866;SDS011;19220;55.816;37.808;2023-04-25T09:26:26;8.48;;;3.22;;
32866;SDS011;19220;55.816;37.808;2023-04-25T09:29:04;9.82;;;3.33;;
32866;SDS011;19220;55.816;37.808;2023-04-25T09:31:30;6.88;;;3.53;;
32866;SDS011;19220;55.816;37.808;2023-04-25T09:34:00;8.98;;;3.30;;
32866;SDS011;19220;55.816;37.808;2023-04-25T09:36:27;7.00;;;3.10;;
32866;SDS011;19220;55.816;37.808;2023-04-25T09:39:19;6.25;;;3.30;;
32866;SDS011;19220;55.816;37.808;2023-04-25T09:41:54;4.65;;;2.17;;
32866;SDS011;19220;55.816;37.808;2023-04-25T09:44:23;2.83;;;1.80;;
32866;SDS011;19220;55.816;37.808;2023-04-25T09:46:50;4.85;;;2.20;;
32866;SDS011;19220;55.816;37.808;2023-04-25T09:49:22;4.15;;;2.05;;
32866;SDS011;19220;55.816;37.808;2023-04-25T09:52:18;3.58;;;1.65;;
32866;SDS011;19220;55.816;37.808;2023-04-25T09:55:07;13.27;;;2.28;;
32866;SDS011;19220;55.816;37.808;2023-04-25T09:57:33;5.85;;;1.88;;
32866;SDS011;19220;55.816;37.808;2023-04-25T10:00:01;4.45;;;1.95;;
32866;SDS011;19220;55.816;37.808;2023-04-25T10:02:42;4.68;;;2.10;;
32866;SDS011;19220;55.816;37.808;2023-04-25T10:05:10;8.65;;;1.75;;
32866;SDS011;19220;55.816;37.808;2023-04-25T10:07:39;2.17;;;1.50;;
32866;SDS011;19220;55.816;37.808;2023-04-25T10:10:12;2.88;;;2.10;;
32866;SDS011;19220;55.816;37.808;2023-04-25T10:12:37;5.53;;;2.35;;
32866;SDS011;19220;55.816;37.808;2023-04-25T10:15:06;5.57;;;2.20;;
32866;SDS011;19220;55.816;37.808;2023-04-25T10:17:33;8.00;;;2.00;;
32866;SDS011;19220;55.816;37.808;2023-04-25T10:20:00;2.65;;;1.90;;
32866;SDS011;19220;55.816;37.808;2023-04-25T10:22:35;2.20;;;2.00;;
32866;SDS011;19220;55.816;37.808;2023-04-25T10:25:02;4.00;;;2.08;;
32866;SDS011;19220;55.816;37.808;2023-04-25T10:27:31;3.35;;;2.30;;
32866;SDS011;19220;55.816;37.808;2023-04-25T10:30:04;4.88;;;2.55;;
32866;SDS011;19220;55.816;37.808;2023-04-25T10:32:31;9.03;;;1.90;;
32866;SDS011;19220;55.816;37.808;2023-04-25T10:35:04;3.22;;;1.77;;
32866;SDS011;19220;55.816;37.808;2023-04-25T10:37:35;5.57;;;1.98;;
32866;SDS011;19220;55.816;37.808;2023-04-25T10:40:07;3.92;;;1.83;;
32866;SDS011;19220;55.816;37.808;2023-04-25T10:42:33;5.43;;;1.85;;
32866;SDS011;19220;55.816;37.808;2023-04-25T10:45:04;3.97;;;1.92;;
32866;SDS011;19220;55.816;37.808;2023-04-25T10:47:36;5.25;;;1.92;;
32866;SDS011;19220;55.816;37.808;2023-04-25T10:50:05;5.38;;;1.90;;
32866;SDS011;19220;55.816;37.808;2023-04-25T10:52:32;3.25;;;1.85;;
32866;SDS011;19220;55.816;37.808;2023-04-25T10:54:59;5.35;;;2.28;;
32866;SDS011;19220;55.816;37.808;2023-04-25T10:59:58;3.90;;;2.00;;
32866;SDS011;19220;55.816;37.808;2023-04-25T11:02:25;5.88;;;2.15;;
32866;SDS011;19220;55.816;37.808;2023-04-25T11:04:52;4.20;;;2.03;;
32866;SDS011;19220;55.816;37.808;2023-04-25T11:08:04;4.15;;;2.30;;
32866;SDS011;19220;55.816;37.808;2023-04-25T11:10:04;12.52;;;2.20;;
32866;SDS011;19220;55.816;37.808;2023-04-25T11:12:31;4.38;;;2.03;;
32866;SDS011;19220;55.816;37.808;2023-04-25T11:15:05;3.53;;;2.00;;
32866;SDS011;19220;55.816;37.808;2023-04-25T11:17:33;2.33;;;1.90;;
32866;SDS011;19220;55.816;37.808;2023-04-25T11:19:59;6.43;;;2.00;;
32866;SDS011;19220;55.816;37.808;2023-04-25T11:22:26;2.30;;;2.08;;
32866;SDS011;19220;55.816;37.808;2023-04-25T11:24:51;4.32;;;1.90;;
32866;SDS011;19220;55.816;37.808;2023-04-25T11:27:17;6.13;;;2.15;;
32866;SDS011;19220;55.816;37.808;2023-04-25T11:29:43;4.38;;;1.75;;
32866;SDS011;19220;55.816;37.808;2023-04-25T11:32:08;5.78;;;1.80;;
32866;SDS011;19220;55.816;37.808;2023-04-25T11:34:34;6.13;;;1.90;;
32866;SDS011;19220;55.816;37.808;2023-04-25T11:37:00;2.10;;;1.60;;
32866;SDS011;19220;55.816;37.808;2023-04-25T11:39:27;3.20;;;1.88;;
32866;SDS011;19220;55.816;37.808;2023-04-25T11:41:53;3.83;;;1.67;;
32866;SDS011;19220;55.816;37.808;2023-04-25T11:44:20;3.55;;;1.83;;
32866;SDS011;19220;55.816;37.808;2023-04-25T11:46:46;4.22;;;1.95;;
32866;SDS011;19220;55.816;37.808;2023-04-25T11:49:12;3.13;;;1.55;;
32866;SDS011;19220;55.816;37.808;2023-04-25T11:51:38;13.07;;;1.90;;
32866;SDS011;19220;55.816;37.808;2023-04-25T11:54:03;4.03;;;1.60;;
32866;SDS011;19220;55.816;37.808;2023-04-25T11:56:30;8.05;;;1.77;;
32866;SDS011;19220;55.816;37.808;2023-04-25T11:58:56;5.93;;;2.03;;
32866;SDS011;19220;55.816;37.808;2023-04-25T12:03:54;7.15;;;2.25;;
32866;SDS011;19220;55.816;37.808;2023-04-25T12:06:20;8.10;;;2.20;;
32866;SDS011;19220;55.816;37.808;2023-04-25T12:09:04;4.93;;;1.70;;
32866;SDS011;19220;55.816;37.808;2023-04-25T12:14:01;6.15;;;2.35;;
32866;SDS011;19220;55.816;37.808;2023-04-25T12:16:26;4.57;;;1.95;;
32866;SDS011;19220;55.816;37.808;2023-04-25T12:18:52;3.17;;;2.10;;
32866;SDS011;19220;55.816;37.808;2023-04-25T12:21:20;6.72;;;2.28;;
32866;SDS011;19220;55.816;37.808;2023-04-25T12:23:45;5.18;;;2.38;;
32866;SDS011;19220;55.816;37.808;2023-04-25T12:26:11;6.40;;;1.90;;
32866;SDS011;19220;55.816;37.808;2023-04-25T12:28:36;4.70;;;1.80;;
32866;SDS011;19220;55.816;37.808;2023-04-25T12:31:03;2.97;;;1.92;;
32866;SDS011;19220;55.816;37.808;2023-04-25T12:33:31;6.88;;;2.13;;
32866;SDS011;19220;55.816;37.808;2023-04-25T12:35:57;5.32;;;1.80;;
32866;SDS011;19220;55.816;37.808;2023-04-25T12:40:49;2.40;;;1.88;;
32866;SDS011;19220;55.816;37.808;2023-04-25T12:43:14;2.53;;;1.70;;
32866;SDS011;19220;55.816;37.808;2023-04-25T12:45:40;2.38;;;1.90;;
32866;SDS011;19220;55.816;37.808;2023-04-25T12:48:06;5.07;;;2.05;;
32866;SDS011;19220;55.816;37.808;2023-04-25T12:50:31;3.90;;;1.65;;
32866;SDS011;19220;55.816;37.808;2023-04-25T12:52:57;5.25;;;2.00;;
32866;SDS011;19220;55.816;37.808;2023-04-25T12:55:25;7.28;;;2.20;;
32866;SDS011;19220;55.816;37.808;2023-04-25T12:57:51;3.63;;;2.00;;
32866;SDS011;19220;55.816;37.808;2023-04-25T13:00:17;8.38;;;2.85;;
32866;SDS011;19220;55.816;37.808;2023-04-25T13:02:45;7.30;;;2.33;;
32866;SDS011;19220;55.816;37.808;2023-04-25T13:05:12;4.43;;;2.60;;
32866;SDS011;19220;55.816;37.808;2023-04-25T13:07:38;3.50;;;2.20;;
32866;SDS011;19220;55.816;37.808;2023-04-25T13:10:04;6.75;;;2.67;;
32866;SDS011;19220;55.816;37.808;2023-04-25T13:12:31;4.20;;;2.22;;
32866;SDS011;19220;55.816;37.808;2023-04-25T13:14:56;7.32;;;2.63;;
32866;SDS011;19220;55.816;37.808;2023-04-25T13:17:22;4.70;;;2.15;;
32866;SDS011;19220;55.816;37.808;2023-04-25T13:19:48;3.50;;;2.20;;
32866;SDS011;19220;55.816;37.808;2023-04-25T13:22:13;6.38;;;2.50;;
32866;SDS011;19220;55.816;37.808;2023-04-25T13:24:40;6.25;;;2.35;;
32866;SDS011;19220;55.816;37.808;2023-04-25T13:27:06;6.82;;;2.10;;
32866;SDS011;19220;55.816;37.808;2023-04-25T13:29:31;2.53;;;2.03;;
32866;SDS011;19220;55.816;37.808;2023-04-25T13:32:00;5.63;;;2.38;;
32866;SDS011;19220;55.816;37.808;2023-04-25T13:34:25;3.63;;;2.08;;
32866;SDS011;19220;55.816;37.808;2023-04-25T13:36:51;8.10;;;2.20;;
32866;SDS011;19220;55.816;37.808;2023-04-25T13:39:17;2.50;;;2.10;;
32866;SDS011;19220;55.816;37.808;2023-04-25T13:41:42;2.58;;;2.20;;
32866;SDS011;19220;55.816;37.808;2023-04-25T13:44:08;7.10;;;1.90;;
32866;SDS011;19220;55.816;37.808;2023-04-25T13:46:33;3.05;;;2.20;;
32866;SDS011;19220;55.816;37.808;2023-04-25T13:48:59;4.72;;;2.72;;
32866;SDS011;19220;55.816;37.808;2023-04-25T13:51:26;6.85;;;2.47;;
32866;SDS011;19220;55.816;37.808;2023-04-25T13:53:52;2.58;;;2.15;;
32866;SDS011;19220;55.816;37.808;2023-04-25T13:56:17;7.40;;;2.63;;
32866;SDS011;19220;55.816;37.808;2023-04-25T13:58:44;6.13;;;2.70;;
32866;SDS011;19220;55.816;37.808;2023-04-25T14:01:10;5.75;;;2.55;;
32866;SDS011;19220;55.816;37.808;2023-04-25T14:03:36;6.78;;;2.60;;
32866;SDS011;19220;55.816;37.808;2023-04-25T14:06:02;3.03;;;2.35;;
32866;SDS011;19220;55.816;37.808;2023-04-25T14:08:27;13.07;;;2.65;;
32866;SDS011;19220;55.816;37.808;2023-04-25T14:10:54;5.13;;;2.95;;
32866;SDS011;19220;55.816;37.808;2023-04-25T14:13:19;9.00;;;3.10;;
32866;SDS011;19220;55.816;37.808;2023-04-25T14:15:45;4.97;;;2.83;;
32866;SDS011;19220;55.816;37.808;2023-04-25T14:18:11;5.47;;;2.85;;
32866;SDS011;19220;55.816;37.808;2023-04-25T14:20:37;6.68;;;2.58;;
32866;SDS011;19220;55.816;37.808;2023-04-25T14:23:02;9.95;;;2.50;;
32866;SDS011;19220;55.816;37.808;2023-04-25T14:25:29;4.30;;;2.22;;
32866;SDS011;19220;55.816;37.808;2023-04-25T14:27:55;6.30;;;2.60;;
32866;SDS011;19220;55.816;37.808;2023-04-25T14:30:21;6.53;;;2.55;;
32866;SDS011;19220;55.816;37.808;2023-04-25T14:32:48;3.15;;;2.20;;
32866;SDS011;19220;55.816;37.808;2023-04-25T14:35:14;5.80;;;2.08;;
32866;SDS011;19220;55.816;37.808;2023-04-25T14:37:40;4.70;;;2.22;;
32866;SDS011;19220;55.816;37.808;2023-04-25T14:40:06;3.20;;;2.20;;
32866;SDS011;19220;55.816;37.808;2023-04-25T14:42:34;3.70;;;2.05;;
32866;SDS011;19220;55.816;37.808;2023-04-25T14:44:59;11.43;;;6.10;;
32866;SDS011;19220;55.816;37.808;2023-04-25T14:47:25;13.00;;;3.55;;
32866;SDS011;19220;55.816;37.808;2023-04-25T14:49:51;4.88;;;2.20;;
32866;SDS011;19220;55.816;37.808;2023-04-25T14:52:22;7.90;;;2.00;;
32866;SDS011;19220;55.816;37.808;2023-04-25T14:54:48;5.53;;;2.25;;